sensor_id;sensor_type;location;lat;lon;timestamp;pressure;altitude;pressure_sealevel;temperature
20867;BMP280;10593;48.398;10.698;2023-03-31T00:00:58;95723.84;;;16.71
20867;BMP280;10593;48.398;10.698;2023-03-31T00:03:25;95723.00;;;16.71
20867;BMP280;10593;48.398;10.698;2023-03-31T00:05:56;95717.91;;;16.69
20867;BMP280;10593;48.398;10.698;2023-03-31T00:08:23;95704.16;;;16.67
20867;BMP280;10593;48.398;10.698;2023-03-31T00:10:49;95702.47;;;16.66
20867;BMP280;10593;48.398;10.698;2023-03-31T00:13:15;95701.63;;;16.66
20867;BMP280;10593;48.398;10.698;2023-03-31T00:15:41;95705.22;;;16.63
20867;BMP280;10593;48.398;10.698;2023-03-31T00:18:07;95694.84;;;16.63
20867;BMP280;10593;48.398;10.698;2023-03-31T00:20:32;95694.00;;;16.63
20867;BMP280;10593;48.398;10.698;2023-03-31T00:23:03;95683.69;;;16.61
20867;BMP280;10593;48.398;10.698;2023-03-31T00:25:31;95680.34;;;16.59
20867;BMP280;10593;48.398;10.698;2023-03-31T00:27:56;95684.69;;;16.59
20867;BMP280;10593;48.398;10.698;2023-03-31T00:30:22;95672.72;;;16.56
20867;BMP280;10593;48.398;10.698;2023-03-31T00:32:48;95675.31;;;16.56
20867;BMP280;10593;48.398;10.698;2023-03-31T00:35:13;95662.47;;;16.53
20867;BMP280;10593;48.398;10.698;2023-03-31T00:37:39;95661.66;;;16.53
20867;BMP280;10593;48.398;10.698;2023-03-31T00:40:05;95668.59;;;16.52
20867;BMP280;10593;48.398;10.698;2023-03-31T00:42:42;95656.53;;;16.51
20867;BMP280;10593;48.398;10.698;2023-03-31T00:47:51;95647.25;;;16.47
20867;BMP280;10593;48.398;10.698;2023-03-31T00:50:26;95642.13;;;16.46
20867;BMP280;10593;48.398;10.698;2023-03-31T00:53:13;95636.13;;;16.45
20867;BMP280;10593;48.398;10.698;2023-03-31T00:55:50;95637.94;;;16.43
20867;BMP280;10593;48.398;10.698;2023-03-31T00:58:18;95632.75;;;16.43
20867;BMP280;10593;48.398;10.698;2023-03-31T01:00:47;95622.47;;;16.42
20867;BMP280;10593;48.398;10.698;2023-03-31T01:03:14;95616.44;;;16.41
20867;BMP280;10593;48.398;10.698;2023-03-31T01:05:50;95622.56;;;16.40
20867;BMP280;10593;48.398;10.698;2023-03-31T01:08:19;95615.66;;;16.39
20867;BMP280;10593;48.398;10.698;2023-03-31T01:10:53;95617.44;;;16.39
20867;BMP280;10593;48.398;10.698;2023-03-31T01:13:21;95608.78;;;16.38
20867;BMP280;10593;48.398;10.698;2023-03-31T01:15:48;95612.31;;;16.37
20867;BMP280;10593;48.398;10.698;2023-03-31T01:18:15;95602.78;;;16.38
20867;BMP280;10593;48.398;10.698;2023-03-31T01:21:23;95596.88;;;16.34
20867;BMP280;10593;48.398;10.698;2023-03-31T01:27:50;95587.66;;;16.29
20867;BMP280;10593;48.398;10.698;2023-03-31T01:42:01;95569.13;;;16.19
20867;BMP280;10593;48.398;10.698;2023-03-31T01:44:56;95566.63;;;16.18
20867;BMP280;10593;48.398;10.698;2023-03-31T01:47:36;95558.00;;;16.17
20867;BMP280;10593;48.398;10.698;2023-03-31T01:50:21;95561.53;;;16.16
20867;BMP280;10593;48.398;10.698;2023-03-31T01:52:57;95559.84;;;16.15
20867;BMP280;10593;48.398;10.698;2023-03-31T01:55:40;95557.31;;;16.14
20867;BMP280;10593;48.398;10.698;2023-03-31T01:58:20;95552.19;;;16.12
20867;BMP280;10593;48.398;10.698;2023-03-31T02:01:01;95556.56;;;16.12
20867;BMP280;10593;48.398;10.698;2023-03-31T02:03:36;95561.00;;;16.10
20867;BMP280;10593;48.398;10.698;2023-03-31T02:06:17;95563.66;;;16.08
20867;BMP280;10593;48.398;10.698;2023-03-31T02:08:50;95563.66;;;16.08
20867;BMP280;10593;48.398;10.698;2023-03-31T02:11:20;95562.88;;;16.06
20867;BMP280;10593;48.398;10.698;2023-03-31T02:13:50;95563.81;;;16.05
20867;BMP280;10593;48.398;10.698;2023-03-31T02:16:23;95549.06;;;16.06
20867;BMP280;10593;48.398;10.698;2023-03-31T02:18:55;95551.78;;;16.04
20867;BMP280;10593;48.398;10.698;2023-03-31T02:21:31;95552.69;;;16.03
20867;BMP280;10593;48.398;10.698;2023-03-31T02:24:03;95546.75;;;16.01
20867;BMP280;10593;48.398;10.698;2023-03-31T02:26:36;95543.28;;;16.01
20867;BMP280;10593;48.398;10.698;2023-03-31T02:29:04;95537.34;;;15.99
20867;BMP280;10593;48.398;10.698;2023-03-31T02:34:16;95536.66;;;15.95
20867;BMP280;10593;48.398;10.698;2023-03-31T02:36:43;95554.91;;;15.94
20867;BMP280;10593;48.398;10.698;2023-03-31T02:39:16;95559.22;;;15.93
20867;BMP280;10593;48.398;10.698;2023-03-31T02:41:43;95563.66;;;15.91
20867;BMP280;10593;48.398;10.698;2023-03-31T02:44:10;95560.22;;;15.91
20867;BMP280;10593;48.398;10.698;2023-03-31T02:46:37;95562.78;;;15.91
20867;BMP280;10593;48.398;10.698;2023-03-31T02:49:06;95552.53;;;15.89
20867;BMP280;10593;48.398;10.698;2023-03-31T02:51:48;95554.22;;;15.90
20867;BMP280;10593;48.398;10.698;2023-03-31T02:55:02;95544.00;;;15.87
20867;BMP280;10593;48.398;10.698;2023-03-31T03:03:38;95544.13;;;15.84
20867;BMP280;10593;48.398;10.698;2023-03-31T03:12:09;95533.75;;;15.84
20867;BMP280;10593;48.398;10.698;2023-03-31T03:15:15;95541.63;;;15.83
20867;BMP280;10593;48.398;10.698;2023-03-31T03:17:46;95534.69;;;15.83
20867;BMP280;10593;48.398;10.698;2023-03-31T03:20:14;95518.22;;;15.84
20867;BMP280;10593;48.398;10.698;2023-03-31T03:22:41;95504.34;;;15.85
20867;BMP280;10593;48.398;10.698;2023-03-31T03:25:11;95514.59;;;15.88
20867;BMP280;10593;48.398;10.698;2023-03-31T03:27:38;95512.91;;;15.87
20867;BMP280;10593;48.398;10.698;2023-03-31T03:30:07;95501.63;;;15.88
20867;BMP280;10593;48.398;10.698;2023-03-31T03:32:33;95493.75;;;15.90
20867;BMP280;10593;48.398;10.698;2023-03-31T03:35:00;95472.97;;;15.91
20867;BMP280;10593;48.398;10.698;2023-03-31T03:37:27;95472.97;;;15.91
20867;BMP280;10593;48.398;10.698;2023-03-31T03:39:52;95466.03;;;15.92
20867;BMP280;10593;48.398;10.698;2023-03-31T03:42:18;95464.28;;;15.92
20867;BMP280;10593;48.398;10.698;2023-03-31T03:44:44;95459.09;;;15.92
20867;BMP280;10593;48.398;10.698;2023-03-31T03:47:09;95434.88;;;15.93
20867;BMP280;10593;48.398;10.698;2023-03-31T03:49:35;95408.09;;;15.93
20867;BMP280;10593;48.398;10.698;2023-03-31T03:52:01;95403.03;;;15.91
20867;BMP280;10593;48.398;10.698;2023-03-31T03:54:27;95396.97;;;15.91
20867;BMP280;10593;48.398;10.698;2023-03-31T03:56:52;95400.50;;;15.90
20867;BMP280;10593;48.398;10.698;2023-03-31T03:59:18;95392.72;;;15.90
20867;BMP280;10593;48.398;10.698;2023-03-31T04:01:44;95392.72;;;15.90
20867;BMP280;10593;48.398;10.698;2023-03-31T04:04:09;95388.41;;;15.90
20867;BMP280;10593;48.398;10.698;2023-03-31T04:06:35;95387.53;;;15.90
20867;BMP280;10593;48.398;10.698;2023-03-31T04:09:01;95385.88;;;15.89
20867;BMP280;10593;48.398;10.698;2023-03-31T04:11:27;95381.53;;;15.89
20867;BMP280;10593;48.398;10.698;2023-03-31T04:13:53;95373.03;;;15.87
20867;BMP280;10593;48.398;10.698;2023-03-31T04:16:18;95360.13;;;15.86
20867;BMP280;10593;48.398;10.698;2023-03-31T04:18:44;95360.97;;;15.86
20867;BMP280;10593;48.398;10.698;2023-03-31T04:21:12;95350.63;;;15.86
20867;BMP280;10593;48.398;10.698;2023-03-31T04:23:41;95345.44;;;15.86
20867;BMP280;10593;48.398;10.698;2023-03-31T04:26:12;95337.75;;;15.85
20867;BMP280;10593;48.398;10.698;2023-03-31T04:28:38;95331.72;;;15.84
20867;BMP280;10593;48.398;10.698;2023-03-31T04:31:09;95331.72;;;15.84
20867;BMP280;10593;48.398;10.698;2023-03-31T04:33:35;95324.03;;;15.83
20867;BMP280;10593;48.398;10.698;2023-03-31T04:36:05;95311.16;;;15.81
20867;BMP280;10593;48.398;10.698;2023-03-31T04:38:48;95305.22;;;15.79
20867;BMP280;10593;48.398;10.698;2023-03-31T04:41:23;95300.09;;;15.78
20867;BMP280;10593;48.398;10.698;2023-03-31T04:43:49;95300.22;;;15.76
20867;BMP280;10593;48.398;10.698;2023-03-31T04:46:15;95284.66;;;15.76
20867;BMP280;10593;48.398;10.698;2023-03-31T04:48:40;95293.34;;;15.75
20867;BMP280;10593;48.398;10.698;2023-03-31T04:51:07;95283.00;;;15.75
20867;BMP280;10593;48.398;10.698;2023-03-31T04:53:33;95276.16;;;15.74
20867;BMP280;10593;48.398;10.698;2023-03-31T04:56:00;95271.88;;;15.73
20867;BMP280;10593;48.398;10.698;2023-03-31T04:58:26;95265.00;;;15.72
20867;BMP280;10593;48.398;10.698;2023-03-31T05:00:52;95259.00;;;15.72
20867;BMP280;10593;48.398;10.698;2023-03-31T05:03:18;95248.56;;;15.73
20867;BMP280;10593;48.398;10.698;2023-03-31T05:05:44;95240.81;;;15.73
20867;BMP280;10593;48.398;10.698;2023-03-31T05:08:10;95227.88;;;15.73
20867;BMP280;10593;48.398;10.698;2023-03-31T05:10:36;95214.91;;;15.73
20867;BMP280;10593;48.398;10.698;2023-03-31T05:13:02;95211.47;;;15.73
20867;BMP280;10593;48.398;10.698;2023-03-31T05:15:27;95210.72;;;15.71
20867;BMP280;10593;48.398;10.698;2023-03-31T05:17:53;95201.19;;;15.71
20867;BMP280;10593;48.398;10.698;2023-03-31T05:20:20;95190.94;;;15.70
20867;BMP280;10593;48.398;10.698;2023-03-31T05:22:46;95174.63;;;15.68
20867;BMP280;10593;48.398;10.698;2023-03-31T05:25:13;95160.84;;;15.67
20867;BMP280;10593;48.398;10.698;2023-03-31T05:27:44;95147.16;;;15.65
20867;BMP280;10593;48.398;10.698;2023-03-31T05:30:15;95148.81;;;15.66
20867;BMP280;10593;48.398;10.698;2023-03-31T05:32:42;95144.56;;;15.65
20867;BMP280;10593;48.398;10.698;2023-03-31T05:35:09;95132.53;;;15.64
20867;BMP280;10593;48.398;10.698;2023-03-31T05:37:35;95126.50;;;15.64
20867;BMP280;10593;48.398;10.698;2023-03-31T05:40:00;95123.91;;;15.64
20867;BMP280;10593;48.398;10.698;2023-03-31T05:42:28;95114.41;;;15.64
20867;BMP280;10593;48.398;10.698;2023-03-31T05:44:54;95110.03;;;15.65
20867;BMP280;10593;48.398;10.698;2023-03-31T05:47:19;95113.50;;;15.65
20867;BMP280;10593;48.398;10.698;2023-03-31T05:49:45;95117.66;;;15.68
20867;BMP280;10593;48.398;10.698;2023-03-31T05:52:11;95120.16;;;15.69
20867;BMP280;10593;48.398;10.698;2023-03-31T05:54:37;95113.97;;;15.72
20867;BMP280;10593;48.398;10.698;2023-03-31T05:57:03;95101.78;;;15.74
20867;BMP280;10593;48.398;10.698;2023-03-31T05:59:28;95109.47;;;15.75
20867;BMP280;10593;48.398;10.698;2023-03-31T06:01:55;95100.78;;;15.76
20867;BMP280;10593;48.398;10.698;2023-03-31T06:04:20;95099.75;;;15.79
20867;BMP280;10593;48.398;10.698;2023-03-31T06:06:46;95104.03;;;15.80
20867;BMP280;10593;48.398;10.698;2023-03-31T06:09:15;95110.78;;;15.82
20867;BMP280;10593;48.398;10.698;2023-03-31T06:11:41;95104.69;;;15.83
20867;BMP280;10593;48.398;10.698;2023-03-31T06:14:07;95112.31;;;15.86
20867;BMP280;10593;48.398;10.698;2023-03-31T06:16:33;95123.41;;;15.88
20867;BMP280;10593;48.398;10.698;2023-03-31T06:18:58;95114.72;;;15.89
20867;BMP280;10593;48.398;10.698;2023-03-31T06:21:24;95116.38;;;15.90
20867;BMP280;10593;48.398;10.698;2023-03-31T06:23:50;95132.66;;;15.92
20867;BMP280;10593;48.398;10.698;2023-03-31T06:26:19;95137.84;;;15.92
20867;BMP280;10593;48.398;10.698;2023-03-31T06:28:47;95138.59;;;15.94
20867;BMP280;10593;48.398;10.698;2023-03-31T06:31:17;95143.69;;;15.96
20867;BMP280;10593;48.398;10.698;2023-03-31T06:33:44;95148.03;;;15.95
20867;BMP280;10593;48.398;10.698;2023-03-31T06:36:13;95152.22;;;15.98
20867;BMP280;10593;48.398;10.698;2023-03-31T06:38:39;95155.63;;;15.98
20867;BMP280;10593;48.398;10.698;2023-03-31T06:41:07;95165.91;;;16.00
20867;BMP280;10593;48.398;10.698;2023-03-31T06:43:33;95175.44;;;15.99
20867;BMP280;10593;48.398;10.698;2023-03-31T06:46:00;95181.47;;;16.00
20867;BMP280;10593;48.398;10.698;2023-03-31T06:48:26;95152.03;;;16.01
20867;BMP280;10593;48.398;10.698;2023-03-31T06:50:53;95139.09;;;16.01
20867;BMP280;10593;48.398;10.698;2023-03-31T06:53:20;95134.75;;;16.01
20867;BMP280;10593;48.398;10.698;2023-03-31T06:55:47;95143.44;;;16.00
20867;BMP280;10593;48.398;10.698;2023-03-31T06:58:13;95149.44;;;16.01
20867;BMP280;10593;48.398;10.698;2023-03-31T07:00:38;95146.84;;;16.01
20867;BMP280;10593;48.398;10.698;2023-03-31T07:03:05;95167.59;;;16.01
20867;BMP280;10593;48.398;10.698;2023-03-31T07:05:31;95163.25;;;16.01
20867;BMP280;10593;48.398;10.698;2023-03-31T07:07:58;95159.88;;;15.99
20867;BMP280;10593;48.398;10.698;2023-03-31T07:10:28;95150.38;;;16.00
20867;BMP280;10593;48.398;10.698;2023-03-31T07:12:54;95149.53;;;15.99
20867;BMP280;10593;48.398;10.698;2023-03-31T07:15:20;95124.53;;;15.98
20867;BMP280;10593;48.398;10.698;2023-03-31T07:17:46;95104.75;;;15.97
20867;BMP280;10593;48.398;10.698;2023-03-31T07:20:17;95086.72;;;15.96
20867;BMP280;10593;48.398;10.698;2023-03-31T07:22:45;95068.66;;;15.94
20867;BMP280;10593;48.398;10.698;2023-03-31T07:25:15;95051.44;;;15.93
20867;BMP280;10593;48.398;10.698;2023-03-31T07:27:41;95045.59;;;15.90
20867;BMP280;10593;48.398;10.698;2023-03-31T07:30:17;95040.41;;;15.90
20867;BMP280;10593;48.398;10.698;2023-03-31T07:32:46;95034.41;;;15.89
20867;BMP280;10593;48.398;10.698;2023-03-31T07:35:12;95021.47;;;15.89
20867;BMP280;10593;48.398;10.698;2023-03-31T07:37:41;95011.09;;;15.89
20867;BMP280;10593;48.398;10.698;2023-03-31T07:40:12;95003.34;;;15.89
20867;BMP280;10593;48.398;10.698;2023-03-31T07:42:40;94998.16;;;15.89
20867;BMP280;10593;48.398;10.698;2023-03-31T07:45:07;94990.38;;;15.89
20867;BMP280;10593;48.398;10.698;2023-03-31T07:47:34;94985.94;;;15.91
20867;BMP280;10593;48.398;10.698;2023-03-31T07:50:00;94976.41;;;15.92
20867;BMP280;10593;48.398;10.698;2023-03-31T07:52:26;94990.13;;;15.94
20867;BMP280;10593;48.398;10.698;2023-03-31T07:54:51;94985.69;;;15.96
20867;BMP280;10593;48.398;10.698;2023-03-31T07:57:17;94984.75;;;15.97
20867;BMP280;10593;48.398;10.698;2023-03-31T07:59:45;94971.69;;;15.98
20867;BMP280;10593;48.398;10.698;2023-03-31T08:02:16;94978.53;;;15.99
20867;BMP280;10593;48.398;10.698;2023-03-31T08:04:43;95013.91;;;16.00
20867;BMP280;10593;48.398;10.698;2023-03-31T08:07:10;95032.78;;;16.02
20867;BMP280;10593;48.398;10.698;2023-03-31T08:09:40;95089.59;;;16.05
20867;BMP280;10593;48.398;10.698;2023-03-31T08:12:06;95131.72;;;16.09
20867;BMP280;10593;48.398;10.698;2023-03-31T08:14:32;95150.50;;;16.12
20867;BMP280;10593;48.398;10.698;2023-03-31T08:16:57;95188.47;;;16.13
20867;BMP280;10593;48.398;10.698;2023-03-31T08:19:25;95188.31;;;16.16
20867;BMP280;10593;48.398;10.698;2023-03-31T08:21:51;95183.88;;;16.18
20867;BMP280;10593;48.398;10.698;2023-03-31T08:24:17;95176.91;;;16.19
20867;BMP280;10593;48.398;10.698;2023-03-31T08:26:43;95152.66;;;16.20
20867;BMP280;10593;48.398;10.698;2023-03-31T08:29:09;95112.88;;;16.21
20867;BMP280;10593;48.398;10.698;2023-03-31T08:31:35;95111.13;;;16.21
20867;BMP280;10593;48.398;10.698;2023-03-31T08:34:01;95090.19;;;16.24
20867;BMP280;10593;48.398;10.698;2023-03-31T08:36:28;95084.09;;;16.25
20867;BMP280;10593;48.398;10.698;2023-03-31T08:38:53;95076.22;;;16.27
20867;BMP280;10593;48.398;10.698;2023-03-31T08:44:36;95028.66;;;16.28
20867;BMP280;10593;48.398;10.698;2023-03-31T08:47:06;95026.72;;;16.31
20867;BMP280;10593;48.398;10.698;2023-03-31T08:49:58;95049.13;;;16.32
20867;BMP280;10593;48.398;10.698;2023-03-31T08:52:43;95038.69;;;16.34
20867;BMP280;10593;48.398;10.698;2023-03-31T08:55:21;95033.41;;;16.35
20867;BMP280;10593;48.398;10.698;2023-03-31T08:58:07;95040.25;;;16.36
20867;BMP280;10593;48.398;10.698;2023-03-31T09:00:54;95030.63;;;16.38
20867;BMP280;10593;48.398;10.698;2023-03-31T09:03:39;95041.66;;;16.42
20867;BMP280;10593;48.398;10.698;2023-03-31T09:06:18;95053.63;;;16.44
20867;BMP280;10593;48.398;10.698;2023-03-31T09:08:46;95045.66;;;16.47
20867;BMP280;10593;48.398;10.698;2023-03-31T09:11:31;95036.69;;;16.53
20867;BMP280;10593;48.398;10.698;2023-03-31T09:14:37;95026.03;;;16.57
20867;BMP280;10593;48.398;10.698;2023-03-31T09:22:32;94989.72;;;16.71
20867;BMP280;10593;48.398;10.698;2023-03-31T09:25:13;94992.84;;;16.76
20867;BMP280;10593;48.398;10.698;2023-03-31T09:27:42;94992.56;;;16.81
20867;BMP280;10593;48.398;10.698;2023-03-31T09:30:32;94997.47;;;16.85
20867;BMP280;10593;48.398;10.698;2023-03-31T09:33:18;94992.81;;;16.90
20867;BMP280;10593;48.398;10.698;2023-03-31T09:35:47;94982.25;;;16.93
20867;BMP280;10593;48.398;10.698;2023-03-31T09:38:14;94999.13;;;17.00
20867;BMP280;10593;48.398;10.698;2023-03-31T09:40:41;94985.88;;;17.04
20867;BMP280;10593;48.398;10.698;2023-03-31T09:43:29;94981.19;;;17.09
20867;BMP280;10593;48.398;10.698;2023-03-31T09:45:56;94983.50;;;17.14
20867;BMP280;10593;48.398;10.698;2023-03-31T09:48:27;94984.16;;;17.17
20867;BMP280;10593;48.398;10.698;2023-03-31T09:51:06;94982.94;;;17.23
20867;BMP280;10593;48.398;10.698;2023-03-31T09:54:48;94978.28;;;17.28
20867;BMP280;10593;48.398;10.698;2023-03-31T09:59:18;94965.69;;;17.36
20867;BMP280;10593;48.398;10.698;2023-03-31T10:01:48;94963.63;;;17.41
20867;BMP280;10593;48.398;10.698;2023-03-31T10:04:25;94960.81;;;17.44
20867;BMP280;10593;48.398;10.698;2023-03-31T10:06:53;94948.38;;;17.49
20867;BMP280;10593;48.398;10.698;2023-03-31T10:09:32;94945.47;;;17.53
20867;BMP280;10593;48.398;10.698;2023-03-31T10:12:15;94943.50;;;17.57
20867;BMP280;10593;48.398;10.698;2023-03-31T10:14:47;94958.78;;;17.61
20867;BMP280;10593;48.398;10.698;2023-03-31T10:17:22;94944.78;;;17.64
20867;BMP280;10593;48.398;10.698;2023-03-31T10:19:56;94944.56;;;17.67
20867;BMP280;10593;48.398;10.698;2023-03-31T10:24:50;94934.69;;;17.72
20867;BMP280;10593;48.398;10.698;2023-03-31T10:27:29;94931.16;;;17.73
20867;BMP280;10593;48.398;10.698;2023-03-31T10:29:58;94944.78;;;17.76
20867;BMP280;10593;48.398;10.698;2023-03-31T10:32:30;94921.31;;;17.78
20867;BMP280;10593;48.398;10.698;2023-03-31T10:35:06;94903.63;;;17.83
20867;BMP280;10593;48.398;10.698;2023-03-31T10:37:35;94901.75;;;17.85
20867;BMP280;10593;48.398;10.698;2023-03-31T10:40:13;94881.53;;;17.90
20867;BMP280;10593;48.398;10.698;2023-03-31T10:42:39;94883.78;;;17.94
20867;BMP280;10593;48.398;10.698;2023-03-31T10:45:28;94872.34;;;17.97
20867;BMP280;10593;48.398;10.698;2023-03-31T10:47:58;94866.13;;;17.99
20867;BMP280;10593;48.398;10.698;2023-03-31T10:50:33;94867.56;;;18.03
20867;BMP280;10593;48.398;10.698;2023-03-31T10:53:16;94858.75;;;18.06
20867;BMP280;10593;48.398;10.698;2023-03-31T10:56:31;94870.69;;;18.08
20867;BMP280;10593;48.398;10.698;2023-03-31T11:00:30;94869.63;;;18.11
20867;BMP280;10593;48.398;10.698;2023-03-31T11:08:45;94846.97;;;18.13
20867;BMP280;10593;48.398;10.698;2023-03-31T11:17:43;94836.25;;;18.17
20867;BMP280;10593;48.398;10.698;2023-03-31T11:20:38;94841.34;;;18.19
20867;BMP280;10593;48.398;10.698;2023-03-31T11:23:36;94816.16;;;18.19
20867;BMP280;10593;48.398;10.698;2023-03-31T11:26:19;94802.13;;;18.22
20867;BMP280;10593;48.398;10.698;2023-03-31T11:31:44;94781.13;;;18.25
20867;BMP280;10593;48.398;10.698;2023-03-31T11:35:00;94776.63;;;18.27
20867;BMP280;10593;48.398;10.698;2023-03-31T11:41:07;94756.25;;;18.33
20867;BMP280;10593;48.398;10.698;2023-03-31T11:43:44;94765.63;;;18.36
20867;BMP280;10593;48.398;10.698;2023-03-31T11:46:26;94766.09;;;18.41
20867;BMP280;10593;48.398;10.698;2023-03-31T11:49:02;94758.94;;;18.44
20867;BMP280;10593;48.398;10.698;2023-03-31T11:51:42;94766.31;;;18.50
20867;BMP280;10593;48.398;10.698;2023-03-31T11:54:38;94751.28;;;18.54
20867;BMP280;10593;48.398;10.698;2023-03-31T11:57:31;94742.44;;;18.56
20867;BMP280;10593;48.398;10.698;2023-03-31T12:00:20;94736.19;;;18.59
20867;BMP280;10593;48.398;10.698;2023-03-31T12:03:11;94746.38;;;18.62
20867;BMP280;10593;48.398;10.698;2023-03-31T12:05:57;94743.66;;;18.63
20867;BMP280;10593;48.398;10.698;2023-03-31T12:08:49;94740.00;;;18.66
20867;BMP280;10593;48.398;10.698;2023-03-31T12:11:51;94735.50;;;18.68
20867;BMP280;10593;48.398;10.698;2023-03-31T12:14:32;94736.25;;;18.70
20867;BMP280;10593;48.398;10.698;2023-03-31T12:17:14;94717.81;;;18.73
20867;BMP280;10593;48.398;10.698;2023-03-31T12:20:24;94736.72;;;18.75
20867;BMP280;10593;48.398;10.698;2023-03-31T12:22:53;94727.97;;;18.76
20867;BMP280;10593;48.398;10.698;2023-03-31T12:25:21;94733.91;;;18.78
20867;BMP280;10593;48.398;10.698;2023-03-31T12:27:48;94731.91;;;18.81
20867;BMP280;10593;48.398;10.698;2023-03-31T12:30:30;94741.28;;;18.84
20867;BMP280;10593;48.398;10.698;2023-03-31T12:33:21;94754.16;;;18.85
20867;BMP280;10593;48.398;10.698;2023-03-31T12:35:59;94744.59;;;18.86
20867;BMP280;10593;48.398;10.698;2023-03-31T12:38:56;94743.50;;;18.88
20867;BMP280;10593;48.398;10.698;2023-03-31T12:47:21;94843.25;;;18.89
20867;BMP280;10593;48.398;10.698;2023-03-31T12:56:17;94857.84;;;18.79
20867;BMP280;10593;48.398;10.698;2023-03-31T12:58:45;94861.41;;;18.78
20867;BMP280;10593;48.398;10.698;2023-03-31T13:01:17;94856.19;;;18.78
20867;BMP280;10593;48.398;10.698;2023-03-31T13:03:53;94852.88;;;18.76
20867;BMP280;10593;48.398;10.698;2023-03-31T13:08:59;94825.44;;;18.72
20867;BMP280;10593;48.398;10.698;2023-03-31T13:16:53;94839.81;;;18.65
20867;BMP280;10593;48.398;10.698;2023-03-31T13:19:36;94823.38;;;18.64
20867;BMP280;10593;48.398;10.698;2023-03-31T13:22:05;94824.19;;;18.65
20867;BMP280;10593;48.398;10.698;2023-03-31T13:24:33;94808.47;;;18.66
20867;BMP280;10593;48.398;10.698;2023-03-31T13:27:44;94813.69;;;18.66
20867;BMP280;10593;48.398;10.698;2023-03-31T13:33:09;94798.78;;;18.68
20867;BMP280;10593;48.398;10.698;2023-03-31T13:35:39;94802.94;;;18.71
20867;BMP280;10593;48.398;10.698;2023-03-31T13:41:08;94790.66;;;18.73
20867;BMP280;10593;48.398;10.698;2023-03-31T13:47:15;94777.41;;;18.76
20867;BMP280;10593;48.398;10.698;2023-03-31T13:53:33;94766.91;;;18.77
20867;BMP280;10593;48.398;10.698;2023-03-31T14:03:17;94789.97;;;18.82
20867;BMP280;10593;48.398;10.698;2023-03-31T14:05:54;94789.88;;;18.83
20867;BMP280;10593;48.398;10.698;2023-03-31T14:08:45;94787.97;;;18.85
20867;BMP280;10593;48.398;10.698;2023-03-31T14:11:31;94773.91;;;18.88
20867;BMP280;10593;48.398;10.698;2023-03-31T14:14:16;94779.75;;;18.91
20867;BMP280;10593;48.398;10.698;2023-03-31T14:17:11;94784.00;;;18.92
20867;BMP280;10593;48.398;10.698;2023-03-31T14:19:55;94778.66;;;18.94
20867;BMP280;10593;48.398;10.698;2023-03-31T14:22:46;94772.50;;;18.95
20867;BMP280;10593;48.398;10.698;2023-03-31T14:25:58;94775.13;;;18.95
20867;BMP280;10593;48.398;10.698;2023-03-31T14:31:21;94771.59;;;18.96
20867;BMP280;10593;48.398;10.698;2023-03-31T14:37:09;94770.75;;;18.95
20867;BMP280;10593;48.398;10.698;2023-03-31T14:39:41;94746.38;;;18.96
20867;BMP280;10593;48.398;10.698;2023-03-31T14:42:15;94738.47;;;18.98
20867;BMP280;10593;48.398;10.698;2023-03-31T14:44:42;94745.19;;;19.00
20867;BMP280;10593;48.398;10.698;2023-03-31T14:47:27;94734.69;;;19.02
20867;BMP280;10593;48.398;10.698;2023-03-31T14:50:13;94732.19;;;19.00
20867;BMP280;10593;48.398;10.698;2023-03-31T14:52:50;94728.78;;;19.00
20867;BMP280;10593;48.398;10.698;2023-03-31T14:55:25;94740.72;;;19.02
20867;BMP280;10593;48.398;10.698;2023-03-31T14:57:54;94752.69;;;19.04
20867;BMP280;10593;48.398;10.698;2023-03-31T15:00:31;94757.78;;;19.06
20867;BMP280;10593;48.398;10.698;2023-03-31T15:03:00;94762.03;;;19.07
20867;BMP280;10593;48.398;10.698;2023-03-31T15:05:36;94753.28;;;19.08
20867;BMP280;10593;48.398;10.698;2023-03-31T15:08:11;94757.53;;;19.09
20867;BMP280;10593;48.398;10.698;2023-03-31T15:10:43;94752.34;;;19.09
20867;BMP280;10593;48.398;10.698;2023-03-31T15:13:17;94752.34;;;19.09
20867;BMP280;10593;48.398;10.698;2023-03-31T15:15:43;94767.13;;;19.08
20867;BMP280;10593;48.398;10.698;2023-03-31T15:18:17;94768.81;;;19.09
20867;BMP280;10593;48.398;10.698;2023-03-31T15:20:44;94769.63;;;19.10
20867;BMP280;10593;48.398;10.698;2023-03-31T15:23:26;94786.09;;;19.10
20867;BMP280;10593;48.398;10.698;2023-03-31T15:26:01;94785.25;;;19.10
20867;BMP280;10593;48.398;10.698;2023-03-31T15:28:37;94808.69;;;19.10
20867;BMP280;10593;48.398;10.698;2023-03-31T15:31:07;94808.78;;;19.08
20867;BMP280;10593;48.398;10.698;2023-03-31T15:33:34;94804.50;;;19.07
20867;BMP280;10593;48.398;10.698;2023-03-31T15:36:02;94819.19;;;19.08
20867;BMP280;10593;48.398;10.698;2023-03-31T15:38:29;94805.47;;;19.06
20867;BMP280;10593;48.398;10.698;2023-03-31T15:40:57;94797.66;;;19.06
20867;BMP280;10593;48.398;10.698;2023-03-31T15:43:30;94801.91;;;19.07
20867;BMP280;10593;48.398;10.698;2023-03-31T15:45:58;94804.66;;;19.06
20867;BMP280;10593;48.398;10.698;2023-03-31T15:48:33;94796.94;;;19.04
20867;BMP280;10593;48.398;10.698;2023-03-31T15:53:50;94787.56;;;19.02
20867;BMP280;10593;48.398;10.698;2023-03-31T15:56:44;94791.97;;;19.02
20867;BMP280;10593;48.398;10.698;2023-03-31T15:59:28;94804.25;;;19.00
20867;BMP280;10593;48.398;10.698;2023-03-31T16:01:55;94808.63;;;18.99
20867;BMP280;10593;48.398;10.698;2023-03-31T16:04:22;94808.75;;;18.98
20867;BMP280;10593;48.398;10.698;2023-03-31T16:07:01;94823.53;;;18.97
20867;BMP280;10593;48.398;10.698;2023-03-31T16:09:47;94842.78;;;18.95
20867;BMP280;10593;48.398;10.698;2023-03-31T16:12:22;94831.66;;;18.93
20867;BMP280;10593;48.398;10.698;2023-03-31T16:15:18;94794.75;;;18.88
20867;BMP280;10593;48.398;10.698;2023-03-31T16:17:56;94803.50;;;18.87
20867;BMP280;10593;48.398;10.698;2023-03-31T16:20:28;94806.19;;;18.85
20867;BMP280;10593;48.398;10.698;2023-03-31T16:22:58;94812.25;;;18.86
20867;BMP280;10593;48.398;10.698;2023-03-31T16:25:26;94825.38;;;18.84